»·PEaware :: XOJ557 KMOT-KRIF

XOJ557 :: KMOT-KRIF

FLIGHT INFORMATION

Flight Status: Arrived
Operator:
XOJET
More flights by this operator :: More flights under this callsign
Pilot: Alex K. (14822)
Aircraft: BOMBARDIER BD-100 CHALLENGER 300
(CL30)
More flights by this aircraft type
Origin: KMOT Minot Intl
United States
Destination: KRIF Richfield Mun
United States
More flights between these airports :: More routes between these airports
Route: MOT CZI URNUW
File this flight plan on PilotEdge
Remarks: Operated by XOJ, Inc. for Knightmare Air, FSEconomy
Altitude:
(Current/Filed)
43,000ft
Speed:
(Current/Filed)
477kts
Departed: 24-Jun-18 12:39 PM
Arrived: 24-Jun-18 02:07 PM
Distance/Time
Traveled:
739nm/1:28
Distance/Time
To Go:
Arrived

Flight Plot

Page will automatically refresh every two minutes.

Flight plan parsing failed; only flown route is shown


Map Options




Map Legend


Flown Route
Filed Route
Departure Airport
Arrival Airport
Navaid (VOR, NDB)
Fix

Horizontal Profiles

Position Reports

Time Latitude Longitude Heading Altitude Ground
Speed
24-Jun-18 12:38 46.694598 -103.306644 222 42791ft 469kts
24-Jun-18 12:39 46.594279 -103.430539 222 42992ft 476kts
24-Jun-18 12:40 46.494935 -103.552615 222 42938ft 470kts
24-Jun-18 12:41 46.396291 -103.673236 221 43044ft 461kts
24-Jun-18 12:42 46.299307 -103.791260 221 42940ft 458kts
24-Jun-18 12:43 46.202716 -103.908251 221 43048ft 455kts
24-Jun-18 12:44 46.106643 -104.024062 221 43050ft 457kts
24-Jun-18 12:45 46.009644 -104.140442 221 43050ft 458kts
24-Jun-18 12:46 45.911927 -104.257134 221 43050ft 460kts
24-Jun-18 12:47 45.814741 -104.372620 221 43046ft 460kts
24-Jun-18 12:48 45.716463 -104.488864 221 43046ft 461kts
24-Jun-18 12:49 45.617856 -104.604952 221 43045ft 461kts
24-Jun-18 12:50 45.520658 -104.718854 221 42994ft 463kts
24-Jun-18 12:51 45.422063 -104.833853 221 43036ft 462kts
24-Jun-18 12:52 45.323139 -104.948700 221 43130ft 461kts
24-Jun-18 12:53 45.224064 -105.063190 221 43130ft 461kts
24-Jun-18 12:54 45.124637 -105.177553 221 43130ft 462kts
24-Jun-18 12:55 45.025061 -105.291557 221 43130ft 463kts
24-Jun-18 12:56 44.926197 -105.404230 221 43130ft 463kts
24-Jun-18 12:57 44.832848 -105.510137 221 43127ft 464kts
24-Jun-18 12:58 44.733943 -105.621858 221 43127ft 463kts
24-Jun-18 12:59 44.633900 -105.733475 220 43129ft 463kts
24-Jun-18 13:00 44.534494 -105.844831 220 43131ft 463kts
24-Jun-18 13:01 44.433880 -105.955421 220 43130ft 463kts
24-Jun-18 13:02 44.334585 -106.064051 220 43130ft 463kts
24-Jun-18 13:03 44.233455 -106.174192 220 43130ft 463kts
24-Jun-18 13:04 44.134181 -106.281834 220 42998ft 467kts
24-Jun-18 13:05 44.033642 -106.390366 220 42995ft 466kts
24-Jun-18 13:06 43.932816 -106.498728 220 42995ft 466kts
24-Jun-18 13:07 43.834208 -106.604160 221 42993ft 463kts
24-Jun-18 13:08 43.734589 -106.710379 220 42991ft 445kts
24-Jun-18 13:09 43.638728 -106.812083 220 42994ft 435kts
24-Jun-18 13:10 43.544875 -106.911247 220 43182ft 424kts
24-Jun-18 13:11 43.452227 -107.008758 220 43206ft 419kts
24-Jun-18 13:12 43.359599 -107.105861 220 43202ft 419kts
24-Jun-18 13:13 43.267737 -107.201786 220 43209ft 418kts
24-Jun-18 13:14 43.175059 -107.298185 220 43209ft 421kts
24-Jun-18 13:15 43.081488 -107.395135 220 43209ft 426kts
24-Jun-18 13:16 42.986831 -107.492820 220 43208ft 431kts
24-Jun-18 13:17 42.893191 -107.589097 220 43207ft 435kts
24-Jun-18 13:18 42.798489 -107.686026 219 43186ft 439kts
24-Jun-18 13:19 42.700777 -107.785682 219 43185ft 443kts
24-Jun-18 13:20 42.601961 -107.886048 219 43185ft 446kts
24-Jun-18 13:21 42.502855 -107.986301 219 43183ft 449kts
24-Jun-18 13:22 42.402911 -108.086988 219 43182ft 448kts
24-Jun-18 13:23 42.303821 -108.186415 219 43207ft 444kts
24-Jun-18 13:24 42.205467 -108.284705 219 43210ft 442kts
24-Jun-18 13:25 42.107228 -108.382500 219 43207ft 440kts
24-Jun-18 13:26 42.009550 -108.479353 219 43209ft 437kts
24-Jun-18 13:27 41.912152 -108.575552 219 43233ft 435kts
24-Jun-18 13:28 41.820973 -108.665296 218 43238ft 434kts
24-Jun-18 13:29 41.725981 -108.758405 218 43239ft 433kts
24-Jun-18 13:30 41.630159 -108.851990 218 43239ft 433kts
24-Jun-18 13:31 41.533629 -108.945912 218 43237ft 433kts
24-Jun-18 13:32 41.436456 -109.040104 218 43236ft 432kts
24-Jun-18 13:33 41.339590 -109.133645 218 43236ft 432kts
24-Jun-18 13:34 41.242615 -109.226942 218 43236ft 431kts
24-Jun-18 13:35 41.145668 -109.319865 218 43235ft 431kts
24-Jun-18 13:36 41.048613 -109.412389 220 43236ft 432kts
24-Jun-18 13:37 40.950816 -109.505531 220 43133ft 438kts
24-Jun-18 13:38 40.853776 -109.597548 220 43125ft 441kts
24-Jun-18 13:39 40.753073 -109.692653 220 41866ft 458kts
24-Jun-18 13:40 40.648901 -109.790642 220 40594ft 463kts
24-Jun-18 13:41 40.551503 -109.881892 220 39373ft 451kts
24-Jun-18 13:42 40.452013 -109.974781 220 38090ft 440kts
24-Jun-18 13:43 40.352994 -110.066919 221 36623ft 442kts
24-Jun-18 13:44 40.254158 -110.158527 221 35145ft 441kts
24-Jun-18 13:45 40.156249 -110.248946 221 33659ft 437kts
24-Jun-18 13:46 40.058828 -110.338594 221 32160ft 431kts
24-Jun-18 13:47 39.961973 -110.427402 221 30644ft 426kts
24-Jun-18 13:48 39.864695 -110.516264 220 28674ft 443kts
24-Jun-18 13:49 39.772600 -110.600089 220 26822ft 443kts
24-Jun-18 13:50 39.675731 -110.687981 220 24860ft 435kts
24-Jun-18 13:51 39.589793 -110.784151 238 23370ft 404kts
24-Jun-18 13:52 39.525884 -110.898238 239 21976ft 388kts
24-Jun-18 13:53 39.463896 -111.011620 239 20575ft 385kts
24-Jun-18 13:54 39.402411 -111.124579 239 19189ft 391kts
24-Jun-18 13:55 39.339224 -111.240578 236 17802ft 400kts
24-Jun-18 13:56 39.274894 -111.358078 236 16406ft 402kts
24-Jun-18 13:57 39.211478 -111.473484 236 15001ft 385kts
24-Jun-18 13:58 39.151137 -111.582885 236 13596ft 368kts
24-Jun-18 13:59 39.094766 -111.685036 234 12851ft 336kts
24-Jun-18 14:00 39.042554 -111.773880 221 12751ft 301kts
24-Jun-18 14:01 38.989803 -111.832503 220 11428ft 301kts
24-Jun-18 14:02 38.927104 -111.900751 220 9838ft 293kts
24-Jun-18 14:03 38.867942 -111.964535 220 8379ft 277kts
24-Jun-18 14:04 38.819996 -112.016268 220 7245ft 176kts
24-Jun-18 14:05 38.787080 -112.051672 219 6400ft 151kts
24-Jun-18 14:06 38.755399 -112.087236 210 5559ft 150kts
24-Jun-18 14:07 38.729449 -112.103131 204 5305ft 33kts
24-Jun-18 14:08 38.728255 -112.103019 22 5307ft 0kts
24-Jun-18 14:09 38.728255 -112.103019 22 5307ft 0kts
24-Jun-18 14:10 38.728255 -112.103019 22 5307ft 0kts
24-Jun-18 14:11 38.728255 -112.103019 22 5307ft 0kts
24-Jun-18 14:12 38.728255 -112.103019 22 5307ft 0kts
24-Jun-18 14:13 38.728255 -112.103019 22 5307ft 0kts
24-Jun-18 14:14 38.728255 -112.103019 22 5307ft 0kts
24-Jun-18 14:15 38.728255 -112.103019 22 5307ft 0kts

Navigation Log

Ident Type
Flight plan parsing failed, navigation log unavailable